createdAt,value
2017-10-05T00:01:08.299Z,91.60
2017-10-05T00:03:36.296Z,91.90
2017-10-05T00:06:04.151Z,91.60
2017-10-05T00:08:32.130Z,91.40
2017-10-05T00:11:00.173Z,91.60
2017-10-05T00:13:28.262Z,91.90
2017-10-05T00:15:56.030Z,91.70
2017-10-05T00:18:23.975Z,91.90
2017-10-05T00:20:51.863Z,91.80
2017-10-05T00:23:19.739Z,92.00
2017-10-05T00:25:47.612Z,91.90
2017-10-05T00:28:15.667Z,92.20
2017-10-05T00:30:43.575Z,92.30
2017-10-05T00:33:12.226Z,92.40
2017-10-05T00:35:40.226Z,92.40
2017-10-05T00:38:08.248Z,92.60
2017-10-05T00:40:36.122Z,92.90
2017-10-05T00:43:03.973Z,93.00
2017-10-05T00:45:31.875Z,93.50
2017-10-05T00:47:59.813Z,93.90
2017-10-05T00:50:27.797Z,94.10
2017-10-05T00:52:55.849Z,93.70
2017-10-05T00:55:23.918Z,93.50
2017-10-05T00:57:51.812Z,93.30
2017-10-05T01:00:19.676Z,92.90
2017-10-05T01:02:47.534Z,93.00
2017-10-05T01:05:15.424Z,92.90
2017-10-05T01:07:43.559Z,93.10
2017-10-05T01:10:11.457Z,93.40
2017-10-05T01:12:39.398Z,93.60
2017-10-05T01:15:07.466Z,93.70
2017-10-05T01:17:35.287Z,93.80
2017-10-05T01:20:04.014Z,94.40
2017-10-05T01:22:32.131Z,94.40
2017-10-05T01:25:01.412Z,95.10
2017-10-05T01:27:29.561Z,94.80
2017-10-05T01:29:57.448Z,94.50
2017-10-05T01:32:25.350Z,94.40
2017-10-05T01:34:54.186Z,94.00
2017-10-05T01:37:22.261Z,94.00
2017-10-05T01:39:50.144Z,94.20
2017-10-05T01:42:18.029Z,94.20
2017-10-05T01:44:45.818Z,94.20
2017-10-05T01:47:13.724Z,94.10
2017-10-05T01:49:41.525Z,94.20
2017-10-05T01:52:09.481Z,94.20
2017-10-05T01:54:37.424Z,94.20
2017-10-05T01:57:05.312Z,94.20
2017-10-05T01:59:33.258Z,94.30
2017-10-05T02:02:01.331Z,94.10
2017-10-05T02:04:29.321Z,93.80
2017-10-05T02:06:57.268Z,94.20
2017-10-05T02:09:25.137Z,94.20
2017-10-05T02:11:52.919Z,94.30
2017-10-05T02:14:20.869Z,94.60
2017-10-05T02:16:48.940Z,94.80
2017-10-05T02:19:17.485Z,95.00
2017-10-05T02:21:45.288Z,95.50
2017-10-05T02:24:13.201Z,95.70
2017-10-05T02:26:42.043Z,95.70
2017-10-05T02:29:09.848Z,96.10
2017-10-05T02:31:38.596Z,95.30
2017-10-05T02:34:06.562Z,95.40
2017-10-05T02:36:34.370Z,95.00
2017-10-05T02:39:02.963Z,95.00
2017-10-05T02:41:31.627Z,95.10
2017-10-05T02:44:00.174Z,95.30
2017-10-05T02:46:28.251Z,95.00
2017-10-05T02:48:56.028Z,94.90
2017-10-05T02:51:23.994Z,94.90
2017-10-05T02:53:51.764Z,94.90
2017-10-05T02:56:19.549Z,95.00
2017-10-05T02:58:47.789Z,95.00
2017-10-05T03:01:15.746Z,94.80
2017-10-05T03:03:43.550Z,94.90
2017-10-05T03:06:11.407Z,94.90
2017-10-05T03:08:39.356Z,94.40
2017-10-05T03:11:07.324Z,94.20
2017-10-05T03:13:35.411Z,93.80
2017-10-05T03:16:03.283Z,93.80
2017-10-05T03:18:31.299Z,93.70
2017-10-05T03:20:59.609Z,93.80
2017-10-05T03:23:27.369Z,93.90
2017-10-05T03:25:55.204Z,94.10
2017-10-05T03:28:22.961Z,94.20
2017-10-05T03:30:50.913Z,94.10
2017-10-05T03:33:19.579Z,94.00
2017-10-05T03:35:47.427Z,94.00
2017-10-05T03:38:15.389Z,93.90
2017-10-05T03:40:43.256Z,94.40
2017-10-05T03:43:11.329Z,93.90
2017-10-05T03:45:39.136Z,94.00
2017-10-05T03:48:07.814Z,93.70
2017-10-05T03:50:35.746Z,93.70
2017-10-05T03:53:03.614Z,93.50
2017-10-05T03:55:31.480Z,93.50
2017-10-05T04:00:34.586Z,93.10
2017-10-05T04:03:02.655Z,93.10
2017-10-05T04:05:30.550Z,92.90
2017-10-05T04:07:58.519Z,93.20
2017-10-05T04:10:27.166Z,93.20
2017-10-05T04:12:55.011Z,92.60
2017-10-05T04:15:22.845Z,92.70
2017-10-05T04:17:50.690Z,92.40
2017-10-05T04:20:19.858Z,92.20
2017-10-05T04:22:47.754Z,92.20
2017-10-05T04:25:15.735Z,92.40
2017-10-05T04:27:43.591Z,92.40
2017-10-05T04:30:11.438Z,92.30
2017-10-05T04:32:39.498Z,92.40
2017-10-05T04:35:07.370Z,91.00
2017-10-05T04:37:35.358Z,90.90
2017-10-05T04:40:03.838Z,90.50
2017-10-05T04:42:31.713Z,90.00
2017-10-05T04:44:59.679Z,90.20
2017-10-05T04:47:27.446Z,90.30
2017-10-05T04:49:55.394Z,90.40
2017-10-05T04:52:23.278Z,90.60
2017-10-05T04:54:51.147Z,90.30
2017-10-05T04:57:19.099Z,90.30
2017-10-05T04:59:46.981Z,90.20
2017-10-05T05:02:14.850Z,90.10
2017-10-05T05:04:42.605Z,90.40
2017-10-05T05:07:10.474Z,90.20
2017-10-05T05:09:38.533Z,90.50
2017-10-05T05:12:06.397Z,90.20
2017-10-05T05:14:34.395Z,90.30
2017-10-05T05:17:02.354Z,90.30
2017-10-05T05:19:30.326Z,90.10
2017-10-05T05:21:58.599Z,90.30
2017-10-05T05:24:26.397Z,90.40
2017-10-05T05:26:55.131Z,88.90
2017-10-05T05:29:22.931Z,88.90
2017-10-05T05:31:52.659Z,89.10
2017-10-05T05:34:20.686Z,89.10
2017-10-05T05:36:48.750Z,90.20
2017-10-05T05:39:16.714Z,89.90
2017-10-05T05:41:44.684Z,90.10
2017-10-05T05:44:12.568Z,90.20
2017-10-05T05:46:40.562Z,90.30
2017-10-05T05:49:09.219Z,90.50
2017-10-05T05:51:37.723Z,90.50
2017-10-05T05:54:05.556Z,90.70
2017-10-05T05:56:33.550Z,90.60
2017-10-05T05:59:01.700Z,90.90
2017-10-05T06:01:29.682Z,90.90
2017-10-05T06:03:57.547Z,90.90
2017-10-05T06:06:26.648Z,91.00
2017-10-05T06:08:54.596Z,90.60
2017-10-05T06:11:22.488Z,90.60
2017-10-05T06:13:50.419Z,90.30
2017-10-05T06:16:18.307Z,90.50
2017-10-05T06:18:46.281Z,90.60
2017-10-05T06:21:14.239Z,90.10
2017-10-05T06:23:42.949Z,89.90
2017-10-05T06:26:10.728Z,90.10
2017-10-05T06:28:39.559Z,87.70
2017-10-05T06:31:07.543Z,87.70
2017-10-05T06:33:35.619Z,87.10
2017-10-05T06:36:03.589Z,81.30
2017-10-05T06:38:31.969Z,77.80
2017-10-05T06:40:59.950Z,76.40
2017-10-05T06:43:27.900Z,75.10
2017-10-05T06:45:55.986Z,74.00
2017-10-05T06:48:23.987Z,73.60
2017-10-05T06:50:52.808Z,72.70
2017-10-05T06:53:20.883Z,72.70
2017-10-05T06:55:48.707Z,72.10
2017-10-05T06:58:17.377Z,70.40
2017-10-05T07:00:45.528Z,70.40
2017-10-05T07:03:13.504Z,69.60
2017-10-05T07:05:41.271Z,67.20
2017-10-05T07:08:09.168Z,66.20
2017-10-05T07:10:37.124Z,65.90
2017-10-05T07:13:05.367Z,69.00
2017-10-05T07:15:33.256Z,64.30
2017-10-05T07:18:01.120Z,62.90
2017-10-05T07:20:28.913Z,62.60
2017-10-05T07:22:57.549Z,65.80
2017-10-05T07:25:25.524Z,65.70
2017-10-05T07:27:53.273Z,66.40
2017-10-05T07:30:21.151Z,69.50
2017-10-05T07:32:49.033Z,65.80
2017-10-05T07:35:16.908Z,61.20
2017-10-05T07:37:44.854Z,62.90
2017-10-05T07:40:12.749Z,58.40
2017-10-05T07:42:41.987Z,61.50
2017-10-05T07:45:10.099Z,61.50
2017-10-05T07:47:37.871Z,63.00
2017-10-05T07:50:05.871Z,66.60
2017-10-05T07:52:34.972Z,68.10
2017-10-05T07:55:03.736Z,67.40
2017-10-05T07:57:31.676Z,67.30
2017-10-05T07:59:59.463Z,66.00
2017-10-05T08:02:27.835Z,62.00
2017-10-05T08:04:55.593Z,61.60
2017-10-05T08:07:23.553Z,62.90
2017-10-05T08:09:51.448Z,66.50
2017-10-05T08:12:19.384Z,66.50
2017-10-05T08:14:47.360Z,69.70
2017-10-05T08:17:15.341Z,69.80
2017-10-05T08:19:43.109Z,70.50
2017-10-05T08:22:10.858Z,70.40
2017-10-05T08:24:38.658Z,72.40
2017-10-05T08:27:07.320Z,62.20
2017-10-05T08:29:35.281Z,62.20
2017-10-05T08:32:03.453Z,61.10
2017-10-05T08:34:31.416Z,59.90
2017-10-05T08:36:59.299Z,58.20
2017-10-05T08:39:27.248Z,59.80
2017-10-05T08:41:55.470Z,61.90
2017-10-05T08:44:24.211Z,61.00
2017-10-05T08:46:52.286Z,61.00
2017-10-05T08:49:20.269Z,63.20
2017-10-05T08:51:48.265Z,60.40
2017-10-05T08:54:17.149Z,60.10
2017-10-05T08:56:46.002Z,59.70
2017-10-05T08:59:14.585Z,59.70
2017-10-05T09:01:43.474Z,58.20
2017-10-05T09:04:11.445Z,59.60
2017-10-05T09:06:39.474Z,59.30
2017-10-05T09:09:08.255Z,59.10
2017-10-05T09:11:36.893Z,60.50
2017-10-05T09:14:04.858Z,60.60
2017-10-05T09:16:32.821Z,61.10
2017-10-05T09:19:00.799Z,60.50
2017-10-05T09:21:28.763Z,60.50
2017-10-05T09:23:56.731Z,62.30
2017-10-05T09:26:24.702Z,60.10
2017-10-05T09:28:52.880Z,60.70
2017-10-05T09:31:20.843Z,61.50
2017-10-05T09:33:48.813Z,61.10
2017-10-05T09:36:16.781Z,63.60
2017-10-05T09:38:45.507Z,60.80
2017-10-05T09:41:14.254Z,61.90
2017-10-05T09:43:42.305Z,61.80
2017-10-05T09:46:10.502Z,63.00
2017-10-05T09:48:38.470Z,62.30
2017-10-05T09:51:06.570Z,62.40
2017-10-05T09:53:34.509Z,60.60
2017-10-05T09:56:02.582Z,60.80
2017-10-05T09:58:30.652Z,60.60
2017-10-05T10:00:58.725Z,58.60
2017-10-05T10:03:26.694Z,61.20
2017-10-05T10:05:55.406Z,59.40
2017-10-05T10:08:23.343Z,59.40
2017-10-05T10:10:51.316Z,58.70
2017-10-05T10:13:19.285Z,60.20
2017-10-05T10:15:47.357Z,58.70
2017-10-05T10:18:15.265Z,60.10
2017-10-05T10:20:44.218Z,59.40
2017-10-05T10:23:12.123Z,59.50
2017-10-05T10:25:40.872Z,58.90
2017-10-05T10:28:08.845Z,58.30
2017-10-05T10:30:37.419Z,54.50
2017-10-05T10:33:05.595Z,54.40
2017-10-05T10:35:33.567Z,52.50
2017-10-05T10:38:01.538Z,55.90
2017-10-05T10:40:29.995Z,57.20
2017-10-05T10:42:57.993Z,57.10
2017-10-05T10:45:25.956Z,57.60
2017-10-05T10:47:54.026Z,54.80
2017-10-05T10:50:22.951Z,56.80
2017-10-05T10:52:51.811Z,56.50
2017-10-05T10:55:19.782Z,56.40
2017-10-05T10:57:47.848Z,57.10
2017-10-05T11:00:16.022Z,55.90
2017-10-05T11:02:44.195Z,56.80
2017-10-05T11:05:12.368Z,57.90
2017-10-05T11:07:40.236Z,58.50
2017-10-05T11:10:08.057Z,58.30
2017-10-05T11:12:36.615Z,56.60
2017-10-05T11:15:04.567Z,56.50
2017-10-05T11:17:32.935Z,56.90
2017-10-05T11:20:01.017Z,56.30
2017-10-05T11:22:29.079Z,58.00
2017-10-05T11:24:57.145Z,58.40
2017-10-05T11:27:25.218Z,56.00
2017-10-05T11:29:53.187Z,58.40
2017-10-05T11:32:21.254Z,58.50
2017-10-05T11:34:49.225Z,56.30
2017-10-05T11:37:17.193Z,57.00
2017-10-05T11:39:45.164Z,57.00
2017-10-05T11:42:13.146Z,53.30
2017-10-05T11:44:41.106Z,53.60
2017-10-05T11:47:09.074Z,53.60
2017-10-05T11:49:37.348Z,51.80
2017-10-05T11:52:05.422Z,50.10
2017-10-05T11:54:33.386Z,51.60
2017-10-05T11:57:01.356Z,52.00
2017-10-05T11:59:29.323Z,51.70
2017-10-05T12:01:57.299Z,51.20
2017-10-05T12:04:26.008Z,51.80
2017-10-05T12:06:53.948Z,48.50
2017-10-05T12:09:22.018Z,49.80
2017-10-05T12:11:50.140Z,53.30
2017-10-05T12:14:18.878Z,48.20
2017-10-05T12:16:47.056Z,48.20
2017-10-05T12:19:15.158Z,50.40
2017-10-05T12:21:43.797Z,49.40
2017-10-05T12:24:11.984Z,49.40
2017-10-05T12:26:40.158Z,50.80
2017-10-05T12:29:08.228Z,49.50
2017-10-05T12:31:36.257Z,48.00
2017-10-05T12:34:04.266Z,49.90
2017-10-05T12:36:32.246Z,47.20
2017-10-05T12:39:00.198Z,46.70
2017-10-05T12:41:29.199Z,47.40
2017-10-05T12:43:57.104Z,47.90
2017-10-05T12:46:25.782Z,46.90
2017-10-05T12:48:53.822Z,46.90
2017-10-05T12:51:22.715Z,49.40
2017-10-05T12:53:50.928Z,46.10
2017-10-05T12:56:19.620Z,44.40
2017-10-05T12:58:48.312Z,44.40
2017-10-05T13:01:17.047Z,45.40
2017-10-05T13:03:45.121Z,45.40
2017-10-05T13:06:13.087Z,42.90
2017-10-05T13:08:41.055Z,42.20
2017-10-05T13:11:09.031Z,42.80
2017-10-05T13:13:37.096Z,42.70
2017-10-05T13:16:05.011Z,41.70
2017-10-05T13:18:33.751Z,38.20
2017-10-05T13:21:01.721Z,38.30
2017-10-05T13:23:29.661Z,38.50
2017-10-05T13:25:57.680Z,41.20
2017-10-05T13:28:25.731Z,38.30
2017-10-05T13:30:53.556Z,37.20
2017-10-05T13:33:21.713Z,37.30
2017-10-05T13:35:50.589Z,36.70
2017-10-05T13:38:18.533Z,36.70
2017-10-05T13:40:46.598Z,40.10
2017-10-05T13:43:14.875Z,38.00
2017-10-05T13:45:42.843Z,38.50
2017-10-05T13:48:10.914Z,37.90
2017-10-05T13:50:38.882Z,40.70
2017-10-05T13:53:07.812Z,38.10
2017-10-05T13:55:36.577Z,37.80
2017-10-05T13:58:04.539Z,37.80
2017-10-05T14:00:32.538Z,38.60
2017-10-05T14:03:01.290Z,35.70
2017-10-05T14:05:29.396Z,35.20
2017-10-05T14:07:58.251Z,33.00
2017-10-05T14:10:26.219Z,33.00
2017-10-05T14:12:54.406Z,31.70
2017-10-05T14:15:22.383Z,28.50
2017-10-05T14:17:51.993Z,28.00
2017-10-05T14:20:21.616Z,25.90
2017-10-05T14:22:50.322Z,25.30
2017-10-05T14:25:18.231Z,25.20
2017-10-05T14:27:46.309Z,25.30
2017-10-05T14:30:14.477Z,25.00
2017-10-05T14:32:42.546Z,26.40
2017-10-05T14:35:10.528Z,27.10
2017-10-05T14:37:38.411Z,25.70
2017-10-05T14:40:07.275Z,28.70
2017-10-05T14:42:35.258Z,28.70
2017-10-05T14:45:03.137Z,27.60
2017-10-05T14:47:32.717Z,26.70
2017-10-05T14:50:00.815Z,26.80
2017-10-05T14:52:29.564Z,25.40
2017-10-05T14:54:57.647Z,26.00
2017-10-05T14:57:25.532Z,26.50
2017-10-05T14:59:53.493Z,24.90
2017-10-05T15:02:21.368Z,24.50
2017-10-05T15:04:49.330Z,26.40
2017-10-05T15:07:17.598Z,25.80
2017-10-05T15:09:46.486Z,25.70
2017-10-05T15:12:14.364Z,25.80
2017-10-05T15:14:42.234Z,27.30
2017-10-05T15:17:10.127Z,26.80
2017-10-05T15:19:38.221Z,28.20
2017-10-05T15:22:06.041Z,29.30
2017-10-05T15:24:33.975Z,30.50
2017-10-05T15:27:01.858Z,30.70
2017-10-05T15:29:29.742Z,30.50
2017-10-05T15:31:57.709Z,28.20
2017-10-05T15:34:25.557Z,27.40
2017-10-05T15:36:53.335Z,29.20
2017-10-05T15:39:21.310Z,28.50
2017-10-05T15:41:49.224Z,28.90
2017-10-05T15:44:17.020Z,29.40
2017-10-05T15:46:44.901Z,30.50
2017-10-05T15:49:12.691Z,29.90
2017-10-05T15:51:42.389Z,32.60
2017-10-05T15:54:10.950Z,30.60
2017-10-05T15:56:38.954Z,31.60
2017-10-05T15:59:07.608Z,32.10
2017-10-05T16:01:35.379Z,31.40
2017-10-05T16:04:03.449Z,32.50
2017-10-05T16:06:31.222Z,33.60
2017-10-05T16:09:01.043Z,32.60
2017-10-05T16:11:28.897Z,34.30
2017-10-05T16:13:56.891Z,33.00
2017-10-05T16:16:25.133Z,33.10
2017-10-05T16:18:53.041Z,33.50
2017-10-05T16:21:21.678Z,33.60
2017-10-05T16:23:49.651Z,33.50
2017-10-05T16:26:17.520Z,34.80
2017-10-05T16:28:45.407Z,33.90
2017-10-05T16:31:13.567Z,34.60
2017-10-05T16:33:41.468Z,36.30
2017-10-05T16:36:10.141Z,37.80
2017-10-05T16:38:38.999Z,39.60
2017-10-05T16:41:06.877Z,39.60
2017-10-05T16:43:34.645Z,45.10
2017-10-05T16:46:02.701Z,48.70
2017-10-05T16:48:30.569Z,50.60
2017-10-05T16:50:58.917Z,51.80
2017-10-05T16:53:26.810Z,52.70
2017-10-05T16:55:54.907Z,53.70
2017-10-05T16:58:23.066Z,54.50
2017-10-05T17:00:51.027Z,55.00
2017-10-05T17:03:19.738Z,56.00
2017-10-05T17:05:47.500Z,57.20
2017-10-05T17:08:15.444Z,58.40
2017-10-05T17:10:43.439Z,60.10
2017-10-05T17:13:11.524Z,61.20
2017-10-05T17:15:40.276Z,65.10
2017-10-05T17:18:08.062Z,64.40
2017-10-05T17:20:36.109Z,66.30
2017-10-05T17:23:04.626Z,66.90
2017-10-05T17:25:33.277Z,68.70
2017-10-05T17:28:01.860Z,68.70
2017-10-05T17:30:30.118Z,69.00
2017-10-05T17:32:58.414Z,70.50
2017-10-05T17:35:26.410Z,70.60
2017-10-05T17:37:54.363Z,71.00
2017-10-05T17:40:22.351Z,71.10
2017-10-05T17:42:50.287Z,70.80
2017-10-05T17:45:18.720Z,70.50
2017-10-05T17:47:47.455Z,69.90
2017-10-05T17:50:15.337Z,69.80
2017-10-05T17:52:43.289Z,71.00
2017-10-05T17:55:11.360Z,71.30
2017-10-05T17:57:39.161Z,71.50
2017-10-05T18:00:08.017Z,71.70
2017-10-05T18:02:35.967Z,71.70
2017-10-05T18:05:04.078Z,70.90
2017-10-05T18:07:32.024Z,71.00
2017-10-05T18:09:59.993Z,71.00
2017-10-05T18:12:28.201Z,64.90
2017-10-05T18:14:56.955Z,63.90
2017-10-05T18:17:24.903Z,63.90
2017-10-05T18:19:52.799Z,65.30
2017-10-05T18:22:20.916Z,64.30
2017-10-05T18:24:49.851Z,57.30
2017-10-05T18:27:17.989Z,57.30
2017-10-05T18:29:46.127Z,57.10
2017-10-05T18:32:13.983Z,58.70
2017-10-05T18:34:41.854Z,56.80
2017-10-05T18:37:09.811Z,53.90
2017-10-05T18:39:37.780Z,57.20
2017-10-05T18:42:05.862Z,58.70
2017-10-05T18:44:33.719Z,64.20
2017-10-05T18:47:01.675Z,70.20
2017-10-05T18:49:29.559Z,80.90
2017-10-05T18:51:57.537Z,85.70
2017-10-05T18:54:25.524Z,84.50
2017-10-05T18:56:54.268Z,85.10
2017-10-05T18:59:22.010Z,85.00
2017-10-05T19:01:50.023Z,83.80
2017-10-05T19:04:17.794Z,84.10
2017-10-05T19:06:45.588Z,81.80
2017-10-05T19:09:14.433Z,80.90
2017-10-05T19:11:42.608Z,80.60
2017-10-05T19:14:10.619Z,83.20
2017-10-05T19:16:38.677Z,85.20
2017-10-05T19:19:07.752Z,88.60
2017-10-05T19:21:35.830Z,88.50
2017-10-05T19:24:03.818Z,88.20
2017-10-05T19:26:31.841Z,88.20
2017-10-05T19:28:59.941Z,88.30
2017-10-05T19:31:27.905Z,89.70
2017-10-05T19:33:55.854Z,91.90
2017-10-05T19:36:23.844Z,92.40
2017-10-05T19:38:51.900Z,92.60
2017-10-05T19:41:20.193Z,92.40
2017-10-05T19:43:48.239Z,92.70
2017-10-05T19:46:16.464Z,94.10
2017-10-05T19:51:38.369Z,95.80
2017-10-05T19:54:07.384Z,97.10
2017-10-05T19:56:35.249Z,97.10
2017-10-05T19:59:03.213Z,97.40
2017-10-05T20:01:31.079Z,97.90
2017-10-05T20:04:00.397Z,98.80
2017-10-05T20:06:29.164Z,98.60
2017-10-05T20:08:57.018Z,98.90
2017-10-05T20:11:25.103Z,99.30
2017-10-05T20:13:53.804Z,99.10
2017-10-05T20:16:22.665Z,99.50
2017-10-05T20:19:02.015Z,99.80
2017-10-05T20:21:47.611Z,99.30
2017-10-05T20:24:21.642Z,99.70
2017-10-05T20:27:07.988Z,99.90
2017-10-05T20:29:42.062Z,99.90
2017-10-05T20:32:11.609Z,99.90
2017-10-05T20:34:39.497Z,99.90
2017-10-05T20:37:07.590Z,99.90
2017-10-05T20:39:36.244Z,99.90
2017-10-05T20:42:04.098Z,99.90
2017-10-05T20:44:32.173Z,99.90
2017-10-05T20:47:00.160Z,99.90
2017-10-05T20:49:27.951Z,99.90
2017-10-05T20:51:56.510Z,99.90
2017-10-05T20:54:24.472Z,99.90
2017-10-05T20:56:55.214Z,99.90
2017-10-05T20:59:22.961Z,99.90
2017-10-05T21:01:50.840Z,99.90
2017-10-05T21:04:19.608Z,99.90
2017-10-05T21:06:48.997Z,99.90
2017-10-05T21:09:16.978Z,99.90
2017-10-05T21:11:44.760Z,99.90
2017-10-05T21:14:12.624Z,99.90
2017-10-05T21:16:40.407Z,99.90
2017-10-05T21:19:08.268Z,99.90
2017-10-05T21:21:42.216Z,99.90
2017-10-05T21:24:10.348Z,99.90
2017-10-05T21:26:38.109Z,99.90
2017-10-05T21:29:05.980Z,99.90
2017-10-05T21:31:33.921Z,99.90
2017-10-05T21:34:01.710Z,99.90
2017-10-05T21:36:29.577Z,99.90
2017-10-05T21:38:57.335Z,99.90
2017-10-05T21:41:26.105Z,99.90
2017-10-05T21:43:53.908Z,99.90
2017-10-05T21:46:21.650Z,99.90
2017-10-05T21:48:49.470Z,99.90
2017-10-05T21:51:17.331Z,99.90
2017-10-05T21:53:45.090Z,99.90
2017-10-05T21:56:12.923Z,99.90
2017-10-05T21:58:40.786Z,99.90
2017-10-05T22:01:08.646Z,99.90
2017-10-05T22:03:37.327Z,99.90
2017-10-05T22:06:05.295Z,99.90
2017-10-05T22:08:33.164Z,98.30
2017-10-05T22:11:00.892Z,99.20
2017-10-05T22:13:28.779Z,99.50
2017-10-05T22:15:56.641Z,99.70
2017-10-05T22:18:24.426Z,99.90
2017-10-05T22:20:52.282Z,99.90
2017-10-05T22:23:20.867Z,99.90
2017-10-05T22:25:48.618Z,99.90
2017-10-05T22:28:16.411Z,99.90
2017-10-05T22:30:44.352Z,99.90
2017-10-05T22:33:12.165Z,99.90
2017-10-05T22:35:40.739Z,99.90
2017-10-05T22:38:08.496Z,99.90
2017-10-05T22:40:36.360Z,99.90
2017-10-05T22:43:04.263Z,99.90
2017-10-05T22:45:32.062Z,99.90
2017-10-05T22:48:00.131Z,99.90
2017-10-05T22:50:28.646Z,99.90
2017-10-05T22:52:56.580Z,99.90
2017-10-05T22:55:24.368Z,99.90
2017-10-05T22:57:52.229Z,99.90
2017-10-05T23:00:20.057Z,99.90
2017-10-05T23:02:47.860Z,99.90
2017-10-05T23:05:15.652Z,99.90
2017-10-05T23:07:44.207Z,99.90
2017-10-05T23:10:12.177Z,99.90
2017-10-05T23:12:40.054Z,99.90
2017-10-05T23:15:08.020Z,99.90
2017-10-05T23:17:35.781Z,99.90
2017-10-05T23:20:03.803Z,99.20
2017-10-05T23:22:31.697Z,99.50
2017-10-05T23:24:59.584Z,99.70
2017-10-05T23:27:27.346Z,99.70
2017-10-05T23:29:55.081Z,99.90
2017-10-05T23:32:22.872Z,99.90
2017-10-05T23:34:50.628Z,99.70
2017-10-05T23:37:18.420Z,99.90
2017-10-05T23:39:46.264Z,99.90
2017-10-05T23:42:14.134Z,99.90
2017-10-05T23:44:42.392Z,99.90
2017-10-05T23:47:10.274Z,99.90
2017-10-05T23:49:38.034Z,99.90
2017-10-05T23:52:06.570Z,99.60
2017-10-05T23:54:34.380Z,99.90
2017-10-05T23:57:02.344Z,99.90
2017-10-05T23:59:30.324Z,99.90
